createdAt,value
2019-03-29T00:01:25.832Z,9.60
2019-03-29T00:03:56.285Z,8.53
2019-03-29T00:06:26.637Z,8.77
2019-03-29T00:08:57.233Z,8.03
2019-03-29T00:11:27.594Z,9.00
2019-03-29T00:13:58.250Z,8.97
2019-03-29T00:16:28.608Z,7.57
2019-03-29T00:18:58.975Z,9.30
2019-03-29T00:21:29.330Z,7.60
2019-03-29T00:24:06.586Z,7.80
2019-03-29T00:26:31.762Z,6.27
2019-03-29T00:29:03.056Z,6.87
2019-03-29T00:31:33.577Z,5.83
2019-03-29T00:34:03.939Z,5.60
2019-03-29T00:36:34.314Z,6.13
2019-03-29T00:39:05.819Z,5.80
2019-03-29T00:41:36.194Z,8.40
2019-03-29T00:44:06.567Z,6.10
2019-03-29T00:46:37.944Z,4.60
2019-03-29T00:49:08.421Z,4.90
2019-03-29T00:51:40.226Z,4.90
2019-03-29T00:54:11.092Z,5.43
2019-03-29T00:56:41.443Z,6.00
2019-03-29T00:59:12.095Z,5.47
2019-03-29T01:01:42.458Z,5.83
2019-03-29T01:04:14.284Z,5.60
2019-03-29T01:06:44.643Z,5.40
2019-03-29T01:09:14.986Z,5.93
2019-03-29T01:11:46.817Z,6.30
2019-03-29T01:14:20.738Z,6.90
2019-03-29T01:16:51.095Z,5.23
2019-03-29T01:19:21.457Z,7.43
2019-03-29T01:21:51.823Z,5.73
2019-03-29T01:24:22.327Z,6.80
2019-03-29T01:26:53.103Z,6.53
2019-03-29T01:29:23.624Z,5.87
2019-03-29T01:31:53.978Z,6.07
2019-03-29T01:34:24.346Z,5.57
2019-03-29T01:36:54.700Z,6.80
2019-03-29T01:39:25.072Z,5.93
2019-03-29T01:41:55.443Z,6.33
2019-03-29T01:44:25.795Z,5.53
2019-03-29T01:46:56.199Z,8.57
2019-03-29T01:49:26.572Z,9.90
2019-03-29T01:51:56.915Z,5.70
2019-03-29T01:54:27.267Z,5.67
2019-03-29T01:56:57.594Z,5.97
2019-03-29T01:59:28.026Z,7.53
2019-03-29T02:01:58.393Z,8.23
2019-03-29T02:04:30.690Z,8.17
2019-03-29T02:07:01.048Z,8.77
2019-03-29T02:09:31.414Z,6.50
2019-03-29T02:12:02.058Z,7.60
2019-03-29T02:14:32.404Z,5.83
2019-03-29T02:17:02.926Z,6.73
2019-03-29T02:19:33.300Z,5.17
2019-03-29T02:22:03.681Z,5.37
2019-03-29T02:24:36.794Z,5.07
2019-03-29T02:27:07.226Z,4.80
2019-03-29T02:29:37.571Z,5.00
2019-03-29T02:32:07.971Z,4.53
2019-03-29T02:34:38.300Z,5.00
2019-03-29T02:37:09.000Z,6.00
2019-03-29T02:39:39.360Z,5.33
2019-03-29T02:42:09.725Z,6.20
2019-03-29T02:44:40.095Z,6.40
2019-03-29T02:47:10.409Z,4.53
2019-03-29T02:49:42.708Z,5.77
2019-03-29T02:52:15.069Z,5.20
2019-03-29T02:54:47.320Z,4.87
2019-03-29T02:57:19.683Z,5.70
2019-03-29T02:59:53.014Z,5.17
2019-03-29T03:02:26.529Z,4.87
2019-03-29T03:04:59.057Z,5.53
2019-03-29T03:07:31.428Z,5.50
2019-03-29T03:10:08.005Z,5.73
2019-03-29T03:12:40.394Z,5.73
2019-03-29T03:15:12.666Z,7.57
2019-03-29T03:17:44.961Z,11.77
2019-03-29T03:20:17.330Z,6.30
2019-03-29T03:22:49.681Z,6.03
2019-03-29T03:25:21.978Z,5.37
2019-03-29T03:27:54.326Z,5.00
2019-03-29T03:30:26.697Z,5.60
2019-03-29T03:32:59.008Z,5.87
2019-03-29T03:35:31.286Z,6.03
2019-03-29T03:38:03.606Z,6.07
2019-03-29T03:40:36.006Z,5.63
2019-03-29T03:43:08.374Z,5.17
2019-03-29T03:45:40.748Z,5.20
2019-03-29T03:48:13.084Z,5.13
2019-03-29T03:50:45.429Z,4.83
2019-03-29T03:53:17.817Z,8.00
2019-03-29T03:55:50.115Z,8.37
2019-03-29T03:58:22.431Z,6.63
2019-03-29T04:00:57.824Z,5.80
2019-03-29T04:03:30.291Z,5.53
2019-03-29T04:06:02.597Z,5.57
2019-03-29T04:08:34.918Z,5.53
2019-03-29T04:11:07.217Z,6.00
2019-03-29T04:13:39.636Z,5.80
2019-03-29T04:16:11.901Z,6.17
2019-03-29T04:18:44.258Z,6.40
2019-03-29T04:21:16.549Z,5.47
2019-03-29T04:23:48.920Z,5.93
2019-03-29T04:26:21.505Z,5.77
2019-03-29T04:29:04.443Z,5.73
2019-03-29T04:31:28.072Z,5.53
2019-03-29T04:34:00.380Z,6.00
2019-03-29T04:36:32.730Z,6.60
2019-03-29T04:39:05.936Z,6.43
2019-03-29T04:41:38.201Z,7.07
2019-03-29T04:44:11.045Z,8.97
2019-03-29T04:46:43.370Z,9.10
2019-03-29T04:49:15.820Z,9.37
2019-03-29T04:51:48.194Z,8.27
2019-03-29T04:54:20.518Z,8.20
2019-03-29T04:56:52.882Z,7.57
2019-03-29T04:59:25.628Z,7.70
2019-03-29T05:01:57.915Z,7.43
2019-03-29T05:04:30.227Z,7.83
2019-03-29T05:07:02.623Z,6.70
2019-03-29T05:09:34.973Z,7.23
2019-03-29T05:12:07.303Z,7.53
2019-03-29T05:14:39.617Z,7.73
2019-03-29T05:17:12.194Z,8.40
2019-03-29T05:19:44.779Z,8.50
2019-03-29T05:22:15.335Z,8.17
2019-03-29T05:24:46.810Z,7.73
2019-03-29T05:27:17.253Z,9.13
2019-03-29T05:29:47.842Z,8.03
2019-03-29T05:32:18.365Z,10.07
2019-03-29T05:34:48.762Z,9.10
2019-03-29T05:37:19.232Z,8.50
2019-03-29T05:39:49.700Z,8.17
2019-03-29T05:42:20.246Z,9.43
2019-03-29T05:44:50.652Z,9.90
2019-03-29T05:47:21.030Z,8.93
2019-03-29T05:49:51.404Z,9.33
2019-03-29T05:52:21.926Z,9.40
2019-03-29T05:54:52.309Z,10.03
2019-03-29T05:57:22.685Z,10.40
2019-03-29T05:59:53.054Z,10.17
2019-03-29T06:02:23.636Z,14.87
2019-03-29T06:04:54.017Z,17.77
2019-03-29T06:07:24.394Z,10.83
2019-03-29T06:09:54.763Z,11.13
2019-03-29T06:12:27.267Z,11.40
2019-03-29T06:14:57.679Z,10.57
2019-03-29T06:17:28.047Z,10.00
2019-03-29T06:19:59.154Z,11.90
2019-03-29T06:22:29.932Z,11.87
2019-03-29T06:25:00.330Z,10.63
2019-03-29T06:27:31.640Z,11.83
2019-03-29T06:30:02.067Z,11.27
2019-03-29T06:32:33.525Z,11.77
2019-03-29T06:35:06.001Z,10.13
2019-03-29T06:37:36.872Z,10.73
2019-03-29T06:40:09.896Z,11.70
2019-03-29T06:42:40.273Z,10.20
2019-03-29T06:45:10.665Z,9.60
2019-03-29T06:47:41.041Z,11.30
2019-03-29T06:50:13.942Z,9.40
2019-03-29T06:52:43.498Z,11.30
2019-03-29T06:55:13.887Z,11.10
2019-03-29T06:57:44.245Z,10.23
2019-03-29T07:00:14.595Z,10.13
2019-03-29T07:02:44.984Z,10.83
2019-03-29T07:05:15.360Z,11.13
2019-03-29T07:07:45.751Z,9.30
2019-03-29T07:10:16.187Z,10.53
2019-03-29T07:12:46.773Z,10.47
2019-03-29T07:15:17.157Z,10.63
2019-03-29T07:17:47.531Z,10.83
2019-03-29T07:20:17.929Z,10.20
2019-03-29T07:22:48.311Z,8.20
2019-03-29T07:25:18.760Z,9.00
2019-03-29T07:27:52.202Z,9.57
2019-03-29T07:30:21.233Z,7.27
2019-03-29T07:32:51.623Z,9.13
2019-03-29T07:35:22.000Z,6.97
2019-03-29T07:37:52.443Z,7.37
2019-03-29T07:40:22.819Z,7.33
2019-03-29T07:42:53.206Z,7.83
2019-03-29T07:45:23.567Z,9.53
2019-03-29T07:47:53.957Z,7.93
2019-03-29T07:50:24.474Z,7.53
2019-03-29T07:52:54.854Z,7.47
2019-03-29T07:55:25.195Z,6.87
2019-03-29T07:57:55.553Z,6.83
2019-03-29T08:00:25.960Z,7.00
2019-03-29T08:02:56.349Z,6.20
2019-03-29T08:05:26.725Z,5.40
2019-03-29T08:07:58.176Z,5.70
2019-03-29T08:10:31.183Z,6.77
2019-03-29T08:13:00.621Z,5.70
2019-03-29T08:15:30.971Z,5.20
2019-03-29T08:18:01.881Z,4.97
2019-03-29T08:20:43.874Z,5.40
2019-03-29T08:23:05.573Z,4.00
2019-03-29T08:25:37.006Z,3.80
2019-03-29T08:28:07.375Z,4.70
2019-03-29T08:30:38.674Z,3.10
2019-03-29T08:33:09.031Z,4.07
2019-03-29T08:35:39.407Z,4.67
2019-03-29T08:38:09.771Z,3.90
2019-03-29T08:40:40.130Z,3.80
2019-03-29T08:43:10.786Z,5.00
2019-03-29T08:45:41.155Z,5.33
2019-03-29T08:48:11.540Z,4.07
2019-03-29T08:50:41.917Z,7.07
2019-03-29T08:53:12.362Z,4.43
2019-03-29T08:55:45.910Z,4.33
2019-03-29T08:58:16.085Z,4.40
2019-03-29T09:00:46.439Z,4.00
2019-03-29T09:03:17.879Z,4.23
2019-03-29T09:05:48.504Z,4.60
2019-03-29T09:08:18.866Z,4.00
2019-03-29T09:10:49.286Z,4.83
2019-03-29T09:13:19.902Z,4.07
2019-03-29T09:15:51.517Z,4.70
2019-03-29T09:18:21.857Z,4.53
2019-03-29T09:20:52.202Z,4.03
2019-03-29T09:23:22.583Z,4.50
2019-03-29T09:25:52.947Z,4.13
2019-03-29T09:28:23.332Z,5.17
2019-03-29T09:30:56.330Z,4.77
2019-03-29T09:33:25.739Z,4.23
2019-03-29T09:35:56.088Z,4.90
2019-03-29T09:38:26.438Z,4.87
2019-03-29T09:40:59.075Z,5.37
2019-03-29T09:43:28.932Z,4.50
2019-03-29T09:45:59.302Z,6.60
2019-03-29T09:48:30.530Z,4.60
2019-03-29T09:51:01.073Z,4.33
2019-03-29T09:53:31.415Z,5.70
2019-03-29T09:56:01.780Z,5.03
2019-03-29T09:58:31.970Z,4.43
2019-03-29T10:01:02.436Z,4.10
2019-03-29T10:03:32.795Z,4.60
2019-03-29T10:06:03.287Z,4.50
2019-03-29T10:08:33.640Z,4.20
2019-03-29T10:11:04.019Z,4.83
2019-03-29T10:13:34.417Z,7.90
2019-03-29T10:16:04.787Z,4.97
2019-03-29T10:18:35.133Z,4.50
2019-03-29T10:21:05.485Z,5.07
2019-03-29T10:23:35.884Z,5.07
2019-03-29T10:26:06.268Z,5.23
2019-03-29T10:28:36.670Z,4.93
2019-03-29T10:31:07.042Z,4.73
2019-03-29T10:33:37.642Z,4.63
2019-03-29T10:36:08.047Z,4.40
2019-03-29T10:38:38.393Z,4.07
2019-03-29T10:41:08.886Z,4.23
2019-03-29T10:43:39.221Z,4.03
2019-03-29T10:46:09.646Z,4.50
2019-03-29T10:48:40.013Z,3.97
2019-03-29T10:51:10.709Z,4.40
2019-03-29T10:53:41.447Z,4.10
2019-03-29T10:56:12.477Z,4.00
2019-03-29T10:58:45.051Z,3.67
2019-03-29T11:01:16.728Z,3.90
2019-03-29T11:03:47.203Z,3.80
2019-03-29T11:06:18.365Z,4.30
2019-03-29T11:08:49.047Z,3.77
2019-03-29T11:11:19.628Z,4.00
2019-03-29T11:13:50.270Z,3.17
2019-03-29T11:16:20.760Z,4.20
2019-03-29T11:18:51.121Z,4.57
2019-03-29T11:21:21.486Z,4.83
2019-03-29T11:23:51.866Z,4.77
2019-03-29T11:26:22.658Z,5.10
2019-03-29T11:28:53.051Z,5.33
2019-03-29T11:31:25.544Z,5.00
2019-03-29T11:33:58.570Z,4.83
2019-03-29T11:36:28.933Z,4.23
2019-03-29T11:38:59.367Z,5.73
2019-03-29T11:41:29.916Z,5.53
2019-03-29T11:44:00.275Z,5.00
2019-03-29T11:46:30.639Z,5.10
2019-03-29T11:49:01.000Z,5.67
2019-03-29T11:51:31.345Z,5.67
2019-03-29T11:54:01.739Z,4.90
2019-03-29T11:56:32.097Z,6.10
2019-03-29T11:59:02.468Z,5.87
2019-03-29T12:01:32.874Z,6.07
2019-03-29T12:04:03.305Z,6.20
2019-03-29T12:06:34.644Z,6.27
2019-03-29T12:09:06.964Z,6.13
2019-03-29T12:11:37.477Z,6.50
2019-03-29T12:14:08.869Z,5.70
2019-03-29T12:16:39.199Z,6.07
2019-03-29T12:19:09.581Z,5.90
2019-03-29T12:21:40.107Z,6.13
2019-03-29T12:24:10.666Z,6.93
2019-03-29T12:26:41.025Z,6.53
2019-03-29T12:29:11.562Z,6.40
2019-03-29T12:31:48.560Z,5.70
2019-03-29T12:34:19.145Z,5.20
2019-03-29T12:36:49.774Z,5.47
2019-03-29T12:39:20.230Z,5.30
2019-03-29T12:41:50.664Z,4.87
2019-03-29T12:44:21.029Z,5.50
2019-03-29T12:46:51.624Z,4.80
2019-03-29T12:49:21.971Z,4.93
2019-03-29T12:51:52.334Z,4.70
2019-03-29T12:54:22.772Z,5.10
2019-03-29T12:56:53.498Z,4.63
2019-03-29T12:59:23.948Z,4.60
2019-03-29T13:01:54.325Z,4.27
2019-03-29T13:04:26.077Z,4.00
2019-03-29T13:06:56.435Z,4.17
2019-03-29T13:09:26.811Z,4.17
2019-03-29T13:11:57.222Z,4.27
2019-03-29T13:14:27.508Z,4.80
2019-03-29T13:16:57.877Z,4.10
2019-03-29T13:19:28.229Z,4.30
2019-03-29T13:21:58.590Z,3.77
2019-03-29T13:24:28.976Z,3.80
2019-03-29T13:26:59.458Z,4.37
2019-03-29T13:29:30.113Z,4.30
2019-03-29T13:32:00.572Z,4.43
2019-03-29T13:34:30.931Z,4.50
2019-03-29T13:37:01.469Z,4.00
2019-03-29T13:39:32.090Z,4.20
2019-03-29T13:42:02.504Z,6.40
2019-03-29T13:44:32.883Z,5.13
2019-03-29T13:47:04.384Z,4.20
2019-03-29T13:49:34.774Z,3.77
2019-03-29T13:52:05.132Z,4.13
2019-03-29T13:54:35.518Z,3.97
2019-03-29T13:57:08.231Z,4.00
2019-03-29T13:59:38.729Z,4.80
2019-03-29T14:02:11.448Z,3.93
2019-03-29T14:04:41.847Z,4.63
2019-03-29T14:07:12.218Z,6.07
2019-03-29T14:09:42.570Z,4.70
2019-03-29T14:12:13.105Z,5.20
2019-03-29T14:14:43.449Z,3.60
2019-03-29T14:17:13.787Z,5.23
2019-03-29T14:19:44.411Z,4.00
2019-03-29T14:22:14.760Z,4.63
2019-03-29T14:24:45.137Z,4.13
2019-03-29T14:27:15.484Z,5.00
2019-03-29T14:29:45.840Z,4.20
2019-03-29T14:32:16.259Z,4.00
2019-03-29T14:34:46.816Z,3.57
2019-03-29T14:37:18.238Z,4.03
2019-03-29T14:39:48.753Z,4.43
2019-03-29T14:42:19.338Z,4.47
2019-03-29T14:44:52.733Z,4.17
2019-03-29T14:47:21.839Z,5.93
2019-03-29T14:49:52.228Z,4.50
2019-03-29T14:52:22.669Z,4.10
2019-03-29T14:54:53.097Z,4.83
2019-03-29T14:57:23.697Z,4.17
2019-03-29T14:59:54.074Z,3.70
2019-03-29T15:02:25.451Z,3.73
2019-03-29T15:04:55.802Z,8.37
2019-03-29T15:07:26.156Z,6.77
2019-03-29T15:09:56.531Z,12.60
2019-03-29T15:12:26.871Z,5.43
2019-03-29T15:15:05.889Z,4.10
2019-03-29T15:17:31.782Z,4.73
2019-03-29T15:20:02.204Z,5.23
2019-03-29T15:22:33.222Z,4.40
2019-03-29T15:25:04.014Z,4.40
2019-03-29T15:27:34.374Z,4.90
2019-03-29T15:30:06.777Z,4.20
2019-03-29T15:32:38.584Z,4.77
2019-03-29T15:35:08.944Z,4.77
2019-03-29T15:37:39.345Z,5.27
2019-03-29T15:40:09.710Z,4.43
2019-03-29T15:42:41.521Z,5.43
2019-03-29T15:45:20.285Z,37.90
2019-03-29T15:47:43.990Z,13.97
2019-03-29T15:50:14.370Z,14.50
2019-03-29T15:52:44.778Z,7.87
2019-03-29T15:55:15.201Z,4.87
2019-03-29T15:57:45.590Z,13.77
2019-03-29T16:00:17.041Z,5.00
2019-03-29T16:02:48.857Z,9.20
2019-03-29T16:05:21.980Z,23.80
2019-03-29T16:07:53.362Z,18.20
2019-03-29T16:10:24.736Z,15.63
2019-03-29T16:12:55.088Z,11.10
2019-03-29T16:15:34.209Z,19.87
2019-03-29T16:17:58.943Z,10.13
2019-03-29T16:20:29.693Z,15.10
2019-03-29T16:23:00.105Z,11.43
2019-03-29T16:25:30.480Z,8.63
2019-03-29T16:28:02.104Z,6.67
2019-03-29T16:30:32.479Z,5.53
2019-03-29T16:33:02.845Z,4.07
2019-03-29T16:35:33.215Z,7.13
2019-03-29T16:38:03.660Z,7.80
2019-03-29T16:40:34.027Z,4.63
2019-03-29T16:43:04.421Z,5.17
2019-03-29T16:45:47.357Z,6.27
2019-03-29T16:48:07.242Z,6.07
2019-03-29T16:50:38.638Z,5.87
2019-03-29T16:53:09.105Z,5.07
2019-03-29T16:55:39.565Z,6.70
2019-03-29T16:58:10.256Z,6.03
2019-03-29T17:00:40.662Z,5.07
2019-03-29T17:03:11.071Z,4.80
2019-03-29T17:05:42.203Z,5.10
2019-03-29T17:08:13.655Z,7.43
2019-03-29T17:10:44.033Z,5.83
2019-03-29T17:13:14.446Z,6.30
2019-03-29T17:15:45.480Z,6.90
2019-03-29T17:18:28.544Z,14.73
2019-03-29T17:20:48.041Z,7.30
2019-03-29T17:23:18.398Z,6.90
2019-03-29T17:25:48.772Z,7.37
2019-03-29T17:28:19.157Z,10.80
2019-03-29T17:30:51.218Z,7.30
2019-03-29T17:33:22.544Z,6.27
2019-03-29T17:35:53.040Z,6.03
2019-03-29T17:38:23.501Z,6.30
2019-03-29T17:40:54.334Z,6.30
2019-03-29T17:43:24.727Z,6.00
2019-03-29T17:45:55.284Z,6.20
2019-03-29T17:48:25.597Z,5.83
2019-03-29T17:50:55.962Z,6.70
2019-03-29T17:53:26.335Z,5.47
2019-03-29T17:55:56.714Z,5.87
2019-03-29T17:58:27.073Z,5.07
2019-03-29T18:00:58.031Z,6.03
2019-03-29T18:03:28.466Z,6.67
2019-03-29T18:05:59.164Z,6.60
2019-03-29T18:08:29.795Z,6.87
2019-03-29T18:11:00.886Z,6.37
2019-03-29T18:13:31.619Z,6.43
2019-03-29T18:16:02.647Z,5.83
2019-03-29T18:18:33.787Z,6.17
2019-03-29T18:21:04.174Z,6.13
2019-03-29T18:23:34.566Z,6.40
2019-03-29T18:26:04.986Z,5.83
2019-03-29T18:28:37.984Z,5.93
2019-03-29T18:31:08.709Z,5.67
2019-03-29T18:33:39.169Z,5.53
2019-03-29T18:36:09.541Z,6.57
2019-03-29T18:38:40.081Z,6.17
2019-03-29T18:41:11.041Z,4.90
2019-03-29T18:43:41.364Z,6.60
2019-03-29T18:46:12.226Z,6.07
2019-03-29T18:48:42.985Z,6.00
2019-03-29T18:51:13.355Z,5.57
2019-03-29T18:53:44.106Z,7.07
2019-03-29T18:56:14.748Z,7.53
2019-03-29T18:58:45.388Z,6.60
2019-03-29T19:01:15.753Z,6.40
2019-03-29T19:03:46.663Z,5.57
2019-03-29T19:06:17.371Z,5.70
2019-03-29T19:08:48.861Z,5.80
2019-03-29T19:11:20.742Z,6.23
2019-03-29T19:13:51.522Z,5.97
2019-03-29T19:16:21.981Z,5.90
2019-03-29T19:18:52.628Z,5.27
2019-03-29T19:21:25.675Z,5.40
2019-03-29T19:23:56.268Z,6.57
2019-03-29T19:26:27.213Z,5.20
2019-03-29T19:28:57.782Z,5.60
2019-03-29T19:31:28.231Z,6.80
2019-03-29T19:34:00.362Z,6.53
2019-03-29T19:36:31.125Z,6.73
2019-03-29T19:39:02.107Z,6.47
2019-03-29T19:41:33.133Z,7.50
2019-03-29T19:44:03.783Z,6.70
2019-03-29T19:46:34.726Z,7.03
2019-03-29T19:49:05.124Z,6.67
2019-03-29T19:51:36.368Z,7.50
2019-03-29T19:54:07.859Z,7.07
2019-03-29T19:56:38.983Z,8.07
2019-03-29T19:59:11.129Z,8.10
2019-03-29T20:01:41.691Z,7.97
2019-03-29T20:04:12.107Z,7.50
2019-03-29T20:06:42.486Z,7.90
2019-03-29T20:09:12.841Z,7.77
2019-03-29T20:11:43.210Z,8.30
2019-03-29T20:14:13.610Z,9.40
2019-03-29T20:16:44.876Z,8.50
2019-03-29T20:19:15.280Z,8.13
2019-03-29T20:21:45.847Z,8.07
2019-03-29T20:24:17.880Z,8.47
2019-03-29T20:26:48.606Z,8.27
2019-03-29T20:29:19.206Z,7.47
2019-03-29T20:31:50.935Z,7.67
2019-03-29T20:34:22.424Z,8.13
2019-03-29T20:36:53.956Z,9.10
2019-03-29T20:39:26.868Z,8.90
2019-03-29T20:41:57.721Z,9.63
2019-03-29T20:44:28.185Z,8.83
2019-03-29T20:46:58.631Z,9.03
2019-03-29T20:49:28.983Z,8.30
2019-03-29T20:51:59.374Z,7.83
2019-03-29T20:54:30.005Z,8.40
2019-03-29T20:57:00.356Z,8.20
2019-03-29T20:59:30.728Z,8.20
2019-03-29T21:02:01.115Z,8.63
2019-03-29T21:04:31.523Z,7.50
2019-03-29T21:07:02.607Z,7.70
2019-03-29T21:09:33.231Z,8.10
2019-03-29T21:12:03.614Z,7.40
2019-03-29T21:14:34.013Z,7.70
2019-03-29T21:17:04.396Z,7.27
2019-03-29T21:19:35.459Z,7.17
2019-03-29T21:22:05.855Z,7.20
2019-03-29T21:24:38.602Z,7.17
2019-03-29T21:27:09.005Z,7.73
2019-03-29T21:29:40.515Z,7.40
2019-03-29T21:32:10.892Z,6.40
2019-03-29T21:34:41.293Z,8.83
2019-03-29T21:37:11.693Z,7.27
2019-03-29T21:39:42.081Z,7.97
2019-03-29T21:42:12.741Z,8.87
2019-03-29T21:44:45.241Z,8.70
2019-03-29T21:47:15.243Z,8.83
2019-03-29T21:49:45.658Z,7.63
2019-03-29T21:52:16.101Z,7.27
2019-03-29T21:54:46.476Z,9.97
2019-03-29T21:57:16.871Z,11.87
2019-03-29T21:59:47.467Z,9.33
2019-03-29T22:02:21.316Z,10.17
2019-03-29T22:04:51.044Z,9.57
2019-03-29T22:07:21.438Z,8.53
2019-03-29T22:09:53.262Z,8.77
2019-03-29T22:12:23.638Z,8.83
2019-03-29T22:14:54.006Z,8.60
2019-03-29T22:17:24.371Z,8.23
2019-03-29T22:19:54.760Z,9.10
2019-03-29T22:22:25.147Z,7.83
2019-03-29T22:24:55.637Z,8.63
2019-03-29T22:27:25.981Z,7.77
2019-03-29T22:29:56.335Z,7.80
2019-03-29T22:32:26.714Z,7.30
2019-03-29T22:34:57.071Z,10.10
2019-03-29T22:37:28.409Z,14.67
2019-03-29T22:39:58.782Z,14.03
2019-03-29T22:42:29.162Z,14.47
2019-03-29T22:44:59.542Z,15.00
2019-03-29T22:47:30.119Z,13.50
2019-03-29T22:50:01.351Z,12.70
2019-03-29T22:52:31.729Z,12.93
2019-03-29T22:55:02.130Z,11.70
2019-03-29T22:57:32.507Z,11.87
2019-03-29T23:00:07.123Z,12.00
2019-03-29T23:02:37.737Z,11.03
2019-03-29T23:05:08.114Z,14.73
2019-03-29T23:07:38.501Z,11.90
2019-03-29T23:10:08.862Z,13.43
2019-03-29T23:12:39.279Z,12.53
2019-03-29T23:15:09.600Z,12.83
2019-03-29T23:17:47.490Z,12.60
2019-03-29T23:20:17.850Z,11.67
2019-03-29T23:22:49.034Z,14.00
2019-03-29T23:25:19.399Z,14.20
2019-03-29T23:27:49.772Z,13.30
2019-03-29T23:30:21.316Z,12.30
2019-03-29T23:32:51.665Z,12.17
2019-03-29T23:35:22.037Z,12.90
2019-03-29T23:37:52.438Z,11.70
2019-03-29T23:40:22.822Z,10.97
2019-03-29T23:42:53.207Z,10.90
2019-03-29T23:45:24.640Z,9.20
2019-03-29T23:47:56.622Z,10.27
2019-03-29T23:50:26.983Z,9.50
2019-03-29T23:52:57.352Z,10.10
2019-03-29T23:55:27.714Z,9.83
2019-03-29T23:57:58.078Z,8.93
